Sausalito, CA (94965)

11:54 AM PDT on September 01, 2014 (GMT -0700)
North Sausalito (Spring St) | Change Station
CLOSE
Current Station
Personal Weather Station
Location: Sausalito, CA
Elevation: 158 ft
Nearby Weather Stations

Elev 158 ft 37.86 °N, 122.50 °W | Updated 23 seconds ago

Clear
Clear
76.8 °F
Feels Like 79 °F
N
5.8
Wind Variable Wind from SSW
Gusts 9.8 mph

Today
High -- | Low -- °F
--% Chance of Precip.
Yesterday
High -- | Low -- °F
Precip. -- in
6:40 AM 7:39 PM
Waxing Crescent, 43% visible
Pressure 29.85 in
Visibility 10.0 miles
Clouds Clear
Heat Index 79 °F
Dew Point 66 °F
Humidity 68%
Rainfall 0.00 in
Snow Depth Not available.
UV 5.0 out of 12
Pollen 8.40 out of 12
Air Quality Not available.
Flu Activity Not available.
METAR KSFO 011756Z 05003KT 10SM CLR 21/16 A2985 RMK AO2 SLP108 T02110161 10211 20156 50001 $

More Conditions Fewer Conditions

Pressure 29.85 in
Visibility 10.0 miles
Clouds Clear
Heat Index 79 °F
Dew Point 66 °F
Humidity 68%
Rainfall 0.00 in
Snow Depth Not available.
UV 5.0 out of 12
Pollen 8.40 out of 12
Air Quality Not available.
Flu Activity Not available.
METAR KSFO 011756Z 05003KT 10SM CLR 21/16 A2985 RMK AO2 SLP108 T02110161 10211 20156 50001 $

More Conditions Fewer Conditions

10-Day Weather Forecast

Almanac

Astronomy

Sep. 01, 2014 Rise Set
Actual Time 6:40 AM PDT 7:39 PM PDT
Civil Twilight 6:13 AM PDT 8:06 PM PDT
Nautical Twilight 5:41 AM PDT 8:37 PM PDT
Astronomical Twilight 5:08 AM PDT 9:10 PM PDT
Moon 1:24 PM PDT 11:52 PM PDT
Length of Visible Light 13h 52m
Length of Day
12h 59m
Tomorrow will be 2m 20s shorter.
Waxing Crescent, 43% of the Moon is Illuminated
Today
Waxing Crescent
Sep 2
First Quarter
Sep 8
Full
Sep 15
Last Quarter
Sep 24
New

Today's Extremes

State Highs State Lows

Community

WunderPhotos

Upload Photos

1,749,359 photos uploaded!

Nearby

Snow Depth

Station Depth Elevation
Blue Lakes 0 in 8000 ft
Forestdale Creek 0 in 8029 ft
Rubicon #2 0 in 7500 ft
Leavitt Meadows 0 in 7200 ft
Adin Mountain 1 in 6200 ft

Earthquake Activity

City Distance Mag. Time & Date
Gilroy, California 84 miles 3.5 9:10 AM PDT
2014-09-01
Green Valley, California 33 miles 2.5 6:37 AM PDT
2014-08-31
Napa, California 27 miles 3.2 1:56 AM PDT
2014-08-31
Gonzales, California 110 miles 2.7 9:48 PM PDT
2014-08-30
Minimum magnitude displayed is 2.5.

Coastal Water Temperatures

Place Temperature
San Francisco, CA 66.0 °F
Richmond, CA 66.9 °F
Port Chicago, CA 70.0 °F

Nearby Weather Stations